Mtsensk, Russia
Current Conditions -  °F | °C
As of 6:00 PM on Wednesday 22 Oct 2014 (Local Time) from UUOK Reporting Station
Overcast Overcast  
Wind Chill: 23°   Ceiling: 2600
Heat Index: 32°   Visibility: 6mi
Dew Point: 19°   Wind: 11mph
Humidity: 60%   Direction: 20°NNE
Pressure: 29.97"   Gusts: NA
Location:  53.27°N, 36.55°E
Report Text: UUOK 221500Z 02005MPS 9999 OVC026 M00/M07 Q1015 NOSIG RMK30CLRD70
Loading
Personal Weather Stations






























Interactive Weather Map
Tropical Storm Tracking
New forecast layout! Learn more

10-Day Weather Forecast

Advertisements
Track Severe Weather on mobile